Terminal Aerodrome Forecast
Issued by NWS Sioux Falls, SD

Home | Current Version | Previous Version | Text Only | Print | Product List | Glossary On
Versions: 1 2 3 4 5 6 7 8 9 10 11 12 13
000
FTUS43 KFSD 252325
TAFHON
TAF
KHON 252325Z 2600/2624 36015KT 6SM -SN BR SCT007 OVC035
      TEMPO 2600/2602 3SM -SN BR BKN007
     FM260700 35012KT 3SM -SN OVC012
      TEMPO 2607/2611 1SM -SN OVC007
     FM261200 36010KT 5SM -SN OVC012
     FM261600 34012KT P6SM OVC015=

USA.gov is the U.S. government's official web portal to all federal, state and local government web resources and services.